Time;durP1;ratioP1;P1;durP2;ratioP2;P2;SDS_P1;SDS_P2;PMS_P1;PMS_P2;Temp;Humidity;BMP_temperature;BMP_pressure;BME280_temperature;BME280_humidity;BME280_pressure;Samples;Min_cycle;Max_cycle;Signal;HPM_P1;HPM_P2
2023/10/19 00:00:45;;;;;;;;;;;16.70;99.90;;;;;;5128533;27;20310;-85
2023/10/19 00:03:11;;;;;;;;;;;16.60;99.90;;;;;;5094347;28;19908;-84
2023/10/19 00:05:37;;;;;;;;;;;16.60;99.90;;;;;;5091267;28;19917;-84
2023/10/19 00:08:24;;;;;;;;;;;16.60;99.90;;;;;;5077880;28;20441;-85
2023/10/19 00:11:01;;;;;;;;;;;16.70;99.90;;;;;;5072924;28;19909;-90
2023/10/19 00:13:28;;;;;;;;;;;16.70;99.90;;;;;;5084681;28;19968;-84
2023/10/19 00:15:57;;;;;;;;;;;16.70;99.90;;;;;;5075942;28;19908;-83
2023/10/19 00:18:23;;;;;;;;;;;16.70;99.90;;;;;;5072702;28;20330;-84
2023/10/19 00:20:59;;;;;;;;;;;16.70;99.90;;;;;;5125782;27;19965;-86
2023/10/19 00:23:28;;;;;;;;;;;16.70;99.90;;;;;;5091574;28;19908;-84
2023/10/19 00:26:08;;;;;;;;;;;16.70;99.90;;;;;;5091153;28;19918;-91
2023/10/19 00:28:35;;;;;;;;;;;16.70;99.90;;;;;;5104015;27;19973;-84
2023/10/19 00:31:04;;;;;;;;;;;16.70;99.90;;;;;;5088540;28;19953;-84
2023/10/19 00:33:32;;;;;;;;;;;16.70;99.90;;;;;;5089437;28;19920;-84
2023/10/19 00:36:08;;;;;;;;;;;16.80;99.90;;;;;;5090738;28;19908;-84
2023/10/19 00:41:07;;;;;;;;;;;16.80;99.90;;;;;;5089834;28;19908;-89
2023/10/19 00:43:37;;;;;;;;;;;16.80;99.90;;;;;;5085697;28;19912;-84
2023/10/19 00:46:13;;;;;;;;;;;16.80;99.90;;;;;;5080379;28;19931;-84
2023/10/19 00:48:40;;;;;;;;;;;16.90;99.90;;;;;;5075387;28;19920;-84
2023/10/19 00:51:26;;;;;;;;;;;16.90;99.90;;;;;;5091663;28;19908;-84
2023/10/19 00:53:54;;;;;;;;;;;16.90;99.90;;;;;;5090634;28;20037;-84
2023/10/19 00:56:20;;;;;;;;;;;16.90;99.90;;;;;;5091725;28;19916;-86
2023/10/19 00:58:53;;;;;;;;;;;16.90;99.90;;;;;;5091036;28;19914;-84
2023/10/19 01:01:21;;;;;;;;;;;16.80;99.90;;;;;;5091755;28;20596;-86
2023/10/19 01:03:52;;;;;;;;;;;16.90;99.90;;;;;;5091719;28;19912;-91
2023/10/19 01:06:20;;;;;;;;;;;16.80;99.90;;;;;;5092046;28;19916;-90
2023/10/19 01:08:46;;;;;;;;;;;16.90;99.90;;;;;;5071594;28;19915;-83
2023/10/19 01:11:15;;;;;;;;;;;16.90;99.90;;;;;;5070492;28;20348;-90
2023/10/19 01:13:44;;;;;;;;;;;16.90;99.90;;;;;;5071146;28;19916;-91
2023/10/19 01:16:20;;;;;;;;;;;16.90;99.90;;;;;;5083005;28;19953;-85
2023/10/19 01:18:53;;;;;;;;;;;16.90;99.90;;;;;;5090170;28;19915;-90
2023/10/19 01:21:21;;;;;;;;;;;16.90;99.90;;;;;;5097404;28;20148;-92
2023/10/19 01:23:48;;;;;;;;;;;16.90;99.90;;;;;;5102326;28;19916;-84
2023/10/19 01:26:18;;;;;;;;;;;17.00;99.90;;;;;;5089914;28;19912;-89
2023/10/19 01:28:47;;;;;;;;;;;17.00;99.90;;;;;;5089932;28;20283;-91
2023/10/19 01:31:17;;;;;;;;;;;17.00;99.90;;;;;;5101348;28;19947;-92
2023/10/19 01:33:44;;;;;;;;;;;16.90;99.90;;;;;;5089808;28;19920;-84
2023/10/19 01:36:42;;;;;;;;;;;17.00;99.90;;;;;;5090243;28;19920;-84
2023/10/19 01:39:01;;;;;;;;;;;16.90;99.90;;;;;;5086650;28;19937;-84
2023/10/19 01:41:27;;;;;;;;;;;17.00;99.90;;;;;;5082747;28;19920;-91
2023/10/19 01:43:53;;;;;;;;;;;17.00;99.90;;;;;;5070180;28;19996;-92
2023/10/19 01:46:33;;;;;;;;;;;17.00;99.90;;;;;;5070752;28;19954;-91
2023/10/19 01:49:01;;;;;;;;;;;17.10;99.90;;;;;;5081176;28;19920;-87
2023/10/19 01:51:28;;;;;;;;;;;17.10;99.90;;;;;;5090269;28;19912;-84
2023/10/19 01:53:55;;;;;;;;;;;17.00;99.90;;;;;;5074512;28;19920;-84
2023/10/19 01:56:21;;;;;;;;;;;17.00;99.90;;;;;;5088342;28;20245;-85
2023/10/19 01:58:48;;;;;;;;;;;17.10;99.90;;;;;;5089067;28;19915;-84
2023/10/19 02:03:43;;;;;;;;;;;17.00;99.90;;;;;;5081042;28;20295;-85
2023/10/19 02:06:21;;;;;;;;;;;17.00;99.90;;;;;;5079457;28;19947;-84
2023/10/19 02:08:50;;;;;;;;;;;17.00;99.90;;;;;;5069659;28;19912;-84
2023/10/19 02:11:18;;;;;;;;;;;17.00;99.90;;;;;;5069696;28;19918;-84
2023/10/19 02:13:46;;;;;;;;;;;17.10;99.90;;;;;;5069723;28;19920;-85
2023/10/19 02:16:13;;;;;;;;;;;17.00;99.90;;;;;;5069928;28;19919;-84
2023/10/19 02:18:40;;;;;;;;;;;17.00;99.90;;;;;;5069628;28;19912;-84
2023/10/19 02:21:06;;;;;;;;;;;17.10;99.90;;;;;;5084963;28;20325;-92
2023/10/19 02:23:34;;;;;;;;;;;17.10;99.90;;;;;;5070848;28;19954;-92
2023/10/19 02:26:00;;;;;;;;;;;16.90;99.90;;;;;;5076439;28;20272;-84
2023/10/19 02:28:31;;;;;;;;;;;17.00;99.90;;;;;;5069814;28;20429;-85
2023/10/19 02:30:57;;;;;;;;;;;17.00;99.90;;;;;;5069880;28;19955;-84
2023/10/19 02:33:22;;;;;;;;;;;16.90;99.90;;;;;;5069618;28;20659;-83
2023/10/19 02:35:48;;;;;;;;;;;16.90;99.90;;;;;;5085619;28;20324;-83
2023/10/19 02:38:13;;;;;;;;;;;16.90;99.90;;;;;;5075704;28;19961;-85
2023/10/19 02:40:39;;;;;;;;;;;16.90;99.90;;;;;;5088455;28;19916;-85
2023/10/19 02:43:04;;;;;;;;;;;16.90;99.90;;;;;;5074082;28;19920;-92
2023/10/19 02:45:30;;;;;;;;;;;16.90;99.90;;;;;;5070438;28;19915;-84
2023/10/19 02:47:57;;;;;;;;;;;16.80;99.90;;;;;;5086469;28;19955;-87
2023/10/19 02:50:26;;;;;;;;;;;16.80;99.90;;;;;;5089619;28;19961;-90
2023/10/19 02:52:53;;;;;;;;;;;16.80;99.90;;;;;;5089797;28;19961;-86
2023/10/19 02:55:20;;;;;;;;;;;16.80;99.90;;;;;;5089762;28;19972;-85
2023/10/19 02:57:46;;;;;;;;;;;16.70;99.90;;;;;;5079585;28;19908;-84
2023/10/19 03:00:13;;;;;;;;;;;16.60;99.90;;;;;;5068193;28;19916;-83
2023/10/19 03:02:39;;;;;;;;;;;16.50;99.90;;;;;;5069690;28;19999;-86
2023/10/19 03:05:12;;;;;;;;;;;16.40;99.90;;;;;;5069916;28;20392;-84
2023/10/19 03:07:38;;;;;;;;;;;16.40;99.90;;;;;;5069595;28;19916;-90
2023/10/19 03:10:05;;;;;;;;;;;16.40;99.90;;;;;;5070540;28;19908;-84
2023/10/19 03:12:30;;;;;;;;;;;16.40;99.90;;;;;;5070569;28;19909;-84
2023/10/19 03:14:56;;;;;;;;;;;16.40;99.90;;;;;;5077995;28;20012;-92
2023/10/19 03:17:23;;;;;;;;;;;16.30;99.90;;;;;;5089759;28;20445;-90
2023/10/19 03:19:48;;;;;;;;;;;16.30;99.90;;;;;;5084791;28;19912;-88
2023/10/19 03:22:14;;;;;;;;;;;16.40;99.90;;;;;;5078007;28;20006;-90
2023/10/19 03:24:43;;;;;;;;;;;16.40;99.90;;;;;;5109151;28;20429;-87
2023/10/19 03:27:15;;;;;;;;;;;16.30;99.90;;;;;;5068935;28;20376;-84
2023/10/19 03:29:45;;;;;;;;;;;16.30;99.90;;;;;;5069555;28;19986;-88
2023/10/19 03:32:12;;;;;;;;;;;16.30;99.90;;;;;;5069788;28;19913;-84
2023/10/19 03:34:37;;;;;;;;;;;16.30;99.90;;;;;;5089039;28;20283;-84
2023/10/19 03:37:09;;;;;;;;;;;16.40;99.90;;;;;;5076596;28;20418;-84
2023/10/19 03:39:37;;;;;;;;;;;16.40;99.90;;;;;;5083953;28;19991;-85
2023/10/19 03:42:07;;;;;;;;;;;16.30;99.90;;;;;;5076559;28;19919;-84
2023/10/19 03:44:45;;;;;;;;;;;16.30;99.90;;;;;;5093072;28;19916;-83
2023/10/19 03:47:20;;;;;;;;;;;16.40;99.90;;;;;;5079725;28;19913;-83
2023/10/19 03:49:46;;;;;;;;;;;16.40;99.90;;;;;;5104825;27;19919;-87
2023/10/19 03:54:41;;;;;;;;;;;16.40;99.90;;;;;;5091816;28;19972;-84
2023/10/19 03:57:29;;;;;;;;;;;16.40;99.90;;;;;;5092083;28;20291;-84
2023/10/19 03:59:57;;;;;;;;;;;16.50;99.90;;;;;;5093064;28;19923;-83
2023/10/19 04:02:23;;;;;;;;;;;16.50;99.90;;;;;;5124225;27;19912;-86
2023/10/19 04:04:50;;;;;;;;;;;16.50;99.90;;;;;;5089792;28;20371;-85
2023/10/19 04:07:21;;;;;;;;;;;16.60;99.90;;;;;;5084704;28;19919;-85
2023/10/19 04:09:58;;;;;;;;;;;16.60;99.90;;;;;;5071225;28;20384;-84
2023/10/19 04:12:24;;;;;;;;;;;16.60;99.90;;;;;;5089828;28;19912;-84
2023/10/19 04:14:50;;;;;;;;;;;16.60;99.90;;;;;;5092109;28;19924;-84
2023/10/19 04:17:17;;;;;;;;;;;16.60;99.90;;;;;;5092256;28;20303;-84
2023/10/19 04:19:43;;;;;;;;;;;16.70;99.90;;;;;;5092485;28;20002;-84
2023/10/19 04:22:11;;;;;;;;;;;16.60;99.90;;;;;;5090250;28;20114;-84
2023/10/19 04:24:36;;;;;;;;;;;16.60;99.90;;;;;;5093243;28;19947;-84
2023/10/19 04:27:02;;;;;;;;;;;16.60;99.90;;;;;;5098255;28;19958;-84
2023/10/19 04:29:27;;;;;;;;;;;16.60;99.90;;;;;;5087667;28;19916;-85
2023/10/19 04:31:57;;;;;;;;;;;16.50;99.90;;;;;;5071098;28;19920;-85
2023/10/19 04:34:22;;;;;;;;;;;16.60;99.90;;;;;;5071732;28;20402;-89
2023/10/19 04:36:48;;;;;;;;;;;16.50;99.90;;;;;;5103011;28;19913;-91
2023/10/19 04:39:13;;;;;;;;;;;16.50;99.90;;;;;;5104526;28;19912;-90
2023/10/19 04:41:40;;;;;;;;;;;16.40;99.90;;;;;;5078264;28;20380;-85
2023/10/19 04:44:08;;;;;;;;;;;16.40;99.90;;;;;;5087947;28;19935;-84
2023/10/19 04:46:33;;;;;;;;;;;16.40;99.90;;;;;;5090637;28;19982;-90
2023/10/19 04:48:59;;;;;;;;;;;16.40;99.90;;;;;;5091204;28;20392;-84
2023/10/19 04:51:25;;;;;;;;;;;16.30;99.90;;;;;;5083709;28;19923;-91
2023/10/19 04:53:50;;;;;;;;;;;16.30;99.90;;;;;;5074903;28;20019;-85
2023/10/19 04:56:16;;;;;;;;;;;16.40;99.90;;;;;;5110596;27;20275;-84
2023/10/19 04:58:41;;;;;;;;;;;16.30;99.90;;;;;;5106641;27;19913;-85
2023/10/19 05:01:07;;;;;;;;;;;16.30;99.90;;;;;;5091629;28;19960;-91
2023/10/19 05:03:32;;;;;;;;;;;16.20;99.90;;;;;;5092824;28;19908;-92
2023/10/19 05:05:58;;;;;;;;;;;16.20;99.90;;;;;;5092901;28;19919;-90
2023/10/19 05:08:27;;;;;;;;;;;16.10;99.90;;;;;;5087870;28;19912;-88
2023/10/19 05:10:54;;;;;;;;;;;16.10;99.90;;;;;;5091208;28;19950;-85
2023/10/19 05:13:20;;;;;;;;;;;16.10;99.90;;;;;;5080199;28;19919;-87
2023/10/19 05:15:47;;;;;;;;;;;16.10;99.90;;;;;;5071958;28;19938;-85
2023/10/19 05:18:12;;;;;;;;;;;16.10;99.90;;;;;;5090202;28;19908;-85
2023/10/19 05:20:40;;;;;;;;;;;16.10;99.90;;;;;;5086271;28;19954;-87
2023/10/19 05:23:06;;;;;;;;;;;16.10;99.90;;;;;;5086395;28;19912;-87
2023/10/19 05:25:32;;;;;;;;;;;16.10;99.90;;;;;;5090860;28;19912;-85
2023/10/19 05:27:58;;;;;;;;;;;16.00;99.90;;;;;;5091199;28;20007;-90
2023/10/19 05:30:24;;;;;;;;;;;15.70;99.90;;;;;;5090622;28;20379;-84
2023/10/19 05:32:50;;;;;;;;;;;16.10;99.90;;;;;;5090357;28;20014;-84
2023/10/19 05:35:22;;;;;;;;;;;16.00;99.90;;;;;;5089465;28;20006;-86
2023/10/19 05:37:49;;;;;;;;;;;16.00;99.90;;;;;;5070603;28;20363;-91
2023/10/19 05:40:15;;;;;;;;;;;16.00;99.90;;;;;;5081063;28;19919;-88
2023/10/19 05:42:40;;;;;;;;;;;16.00;99.90;;;;;;5080134;28;19912;-86
2023/10/19 05:45:06;;;;;;;;;;;16.00;99.90;;;;;;5091103;28;19915;-87
2023/10/19 05:47:32;;;;;;;;;;;16.00;99.90;;;;;;5090887;28;20122;-85
2023/10/19 05:49:57;;;;;;;;;;;16.00;99.90;;;;;;5090606;28;20279;-86
2023/10/19 05:52:23;;;;;;;;;;;16.00;99.90;;;;;;5090741;28;20049;-90
2023/10/19 05:54:49;;;;;;;;;;;15.80;99.90;;;;;;5090700;28;20352;-92
2023/10/19 05:57:15;;;;;;;;;;;15.90;99.90;;;;;;5123546;27;19935;-92
2023/10/19 05:59:43;;;;;;;;;;;15.90;99.90;;;;;;5091600;28;19908;-85
2023/10/19 06:02:08;;;;;;;;;;;15.90;99.90;;;;;;5091250;28;19911;-88
2023/10/19 06:04:34;;;;;;;;;;;15.80;99.90;;;;;;5089828;28;20003;-85
2023/10/19 06:07:00;;;;;;;;;;;15.80;99.90;;;;;;5090474;28;19965;-85
2023/10/19 06:09:29;;;;;;;;;;;15.80;99.90;;;;;;5090613;28;19908;-90
2023/10/19 06:11:55;;;;;;;;;;;15.80;99.90;;;;;;5089332;28;19916;-92
2023/10/19 06:14:20;;;;;;;;;;;15.80;99.90;;;;;;5090416;28;19916;-85
2023/10/19 06:16:46;;;;;;;;;;;15.80;99.90;;;;;;5090152;28;20272;-91
2023/10/19 06:19:11;;;;;;;;;;;15.90;99.90;;;;;;5091200;28;19908;-86
2023/10/19 06:21:37;;;;;;;;;;;15.80;99.90;;;;;;5090426;28;20352;-90
2023/10/19 06:24:02;;;;;;;;;;;15.80;99.90;;;;;;5090190;28;19916;-88
2023/10/19 06:26:28;;;;;;;;;;;15.80;99.90;;;;;;5089025;28;19912;-93
2023/10/19 06:28:58;;;;;;;;;;;15.80;99.90;;;;;;5090268;28;19915;-85
2023/10/19 06:31:25;;;;;;;;;;;15.80;99.90;;;;;;5088730;28;19908;-86
2023/10/19 06:33:51;;;;;;;;;;;15.80;99.90;;;;;;5090160;28;19911;-85
2023/10/19 06:36:17;;;;;;;;;;;15.90;99.90;;;;;;5088915;28;19961;-91
2023/10/19 06:38:44;;;;;;;;;;;15.90;99.90;;;;;;5090842;28;19995;-85
2023/10/19 06:41:10;;;;;;;;;;;15.90;99.90;;;;;;5088781;28;19912;-92
2023/10/19 06:43:36;;;;;;;;;;;15.90;99.90;;;;;;5088811;28;19934;-86
2023/10/19 06:46:01;;;;;;;;;;;16.00;99.90;;;;;;5090079;28;20291;-85
2023/10/19 06:48:27;;;;;;;;;;;16.00;99.90;;;;;;5089933;28;20299;-89
2023/10/19 06:50:52;;;;;;;;;;;16.00;99.90;;;;;;5089946;28;19995;-86
2023/10/19 06:53:18;;;;;;;;;;;16.10;99.90;;;;;;5088595;28;19978;-85
2023/10/19 06:55:43;;;;;;;;;;;16.10;99.90;;;;;;5089542;28;19987;-89
2023/10/19 06:58:09;;;;;;;;;;;16.10;99.90;;;;;;5089909;28;19912;-85
2023/10/19 07:00:36;;;;;;;;;;;16.20;99.90;;;;;;5089667;28;19915;-91
2023/10/19 07:03:03;;;;;;;;;;;16.20;99.90;;;;;;5122343;28;19955;-85
2023/10/19 07:05:31;;;;;;;;;;;16.30;99.90;;;;;;5089791;28;20395;-88
2023/10/19 07:07:59;;;;;;;;;;;16.30;99.90;;;;;;5122847;28;19915;-85
2023/10/19 07:10:25;;;;;;;;;;;16.40;99.90;;;;;;5089960;28;19915;-85
2023/10/19 07:12:53;;;;;;;;;;;16.40;99.90;;;;;;5089705;28;20334;-84
2023/10/19 07:15:19;;;;;;;;;;;16.40;99.90;;;;;;5089578;28;20459;-85
2023/10/19 07:17:45;;;;;;;;;;;16.40;99.90;;;;;;5092858;28;19999;-91
2023/10/19 07:20:25;;;;;;;;;;;16.50;99.90;;;;;;5092838;28;19950;-91
2023/10/19 07:22:51;;;;;;;;;;;16.50;99.90;;;;;;5093920;28;19965;-93
2023/10/19 07:25:20;;;;;;;;;;;16.50;99.90;;;;;;5094761;28;19908;-89
2023/10/19 07:27:47;;;;;;;;;;;16.50;99.90;;;;;;5094823;28;19915;-89
2023/10/19 07:30:15;;;;;;;;;;;16.60;99.90;;;;;;5094058;28;19954;-89
2023/10/19 07:32:41;;;;;;;;;;;16.60;99.90;;;;;;5093043;28;19912;-92
2023/10/19 07:35:06;;;;;;;;;;;16.70;99.90;;;;;;5092579;28;19978;-88
2023/10/19 07:37:32;;;;;;;;;;;16.70;99.90;;;;;;5093810;28;19908;-89
2023/10/19 07:39:57;;;;;;;;;;;16.70;99.90;;;;;;5093718;28;19912;-91
2023/10/19 07:42:23;;;;;;;;;;;16.80;99.90;;;;;;5126795;27;19908;-86
2023/10/19 07:44:49;;;;;;;;;;;16.80;99.90;;;;;;5094433;28;19907;-87
2023/10/19 07:47:15;;;;;;;;;;;16.90;99.90;;;;;;5092970;28;19912;-88
2023/10/19 07:49:41;;;;;;;;;;;16.80;99.90;;;;;;5093685;28;19912;-91
2023/10/19 07:52:07;;;;;;;;;;;16.90;99.90;;;;;;5093420;28;19908;-92
2023/10/19 07:54:33;;;;;;;;;;;16.90;99.90;;;;;;5092011;28;19953;-90
2023/10/19 07:57:03;;;;;;;;;;;16.90;99.90;;;;;;5093312;28;19916;-86
2023/10/19 07:59:29;;;;;;;;;;;16.90;99.90;;;;;;5093147;28;19908;-85
2023/10/19 08:01:54;;;;;;;;;;;16.90;99.90;;;;;;5092743;28;19915;-84
2023/10/19 08:04:20;;;;;;;;;;;17.00;99.90;;;;;;5092365;28;19965;-84
2023/10/19 08:06:47;;;;;;;;;;;17.00;99.90;;;;;;5093651;28;20070;-84
2023/10/19 08:09:12;;;;;;;;;;;17.10;99.90;;;;;;5091447;28;19908;-84
2023/10/19 08:11:38;;;;;;;;;;;17.10;99.90;;;;;;5092652;28;19908;-84
2023/10/19 08:14:05;;;;;;;;;;;17.20;99.90;;;;;;5092515;28;19919;-91
2023/10/19 08:16:30;;;;;;;;;;;17.30;99.90;;;;;;5091414;28;19995;-87
2023/10/19 08:18:57;;;;;;;;;;;17.40;99.90;;;;;;5092575;28;20395;-87
2023/10/19 08:21:23;;;;;;;;;;;17.50;99.90;;;;;;5125537;27;19908;-85
2023/10/19 08:23:48;;;;;;;;;;;17.60;99.90;;;;;;5092181;28;19977;-91
2023/10/19 08:26:15;;;;;;;;;;;17.70;99.90;;;;;;5125543;27;20029;-89
2023/10/19 08:28:40;;;;;;;;;;;17.80;99.90;;;;;;5091751;28;19912;-84
2023/10/19 08:31:10;;;;;;;;;;;17.80;99.90;;;;;;5092663;28;20003;-85
2023/10/19 08:33:38;;;;;;;;;;;17.70;99.90;;;;;;5092209;28;19917;-94
2023/10/19 08:36:05;;;;;;;;;;;17.70;99.90;;;;;;5092371;28;19916;-85
2023/10/19 08:38:30;;;;;;;;;;;17.70;99.90;;;;;;5092531;28;19916;-84
2023/10/19 08:40:56;;;;;;;;;;;17.70;99.90;;;;;;5091272;28;20383;-91
2023/10/19 08:43:24;;;;;;;;;;;17.80;99.90;;;;;;5092651;28;19908;-84
2023/10/19 08:45:49;;;;;;;;;;;17.80;99.90;;;;;;5092954;28;19977;-84
2023/10/19 08:48:15;;;;;;;;;;;17.80;99.90;;;;;;5124733;27;20300;-93
2023/10/19 08:50:41;;;;;;;;;;;17.80;99.90;;;;;;5092042;28;20007;-84
2023/10/19 08:53:14;;;;;;;;;;;17.60;99.90;;;;;;5090754;28;19908;-85
2023/10/19 08:55:39;;;;;;;;;;;17.70;99.90;;;;;;5092217;28;19995;-84
2023/10/19 08:58:05;;;;;;;;;;;17.80;99.90;;;;;;5091958;28;19967;-92
2023/10/19 09:00:42;;;;;;;;;;;17.80;99.90;;;;;;5091781;28;19915;-89
2023/10/19 09:03:08;;;;;;;;;;;18.00;99.90;;;;;;5090612;28;19908;-85
2023/10/19 09:05:37;;;;;;;;;;;18.00;99.90;;;;;;5091537;28;19908;-84
2023/10/19 09:08:06;;;;;;;;;;;18.10;99.90;;;;;;5124701;27;19908;-84
2023/10/19 09:10:31;;;;;;;;;;;18.20;99.90;;;;;;5090245;28;20006;-92
2023/10/19 09:13:09;;;;;;;;;;;18.10;99.90;;;;;;5091662;28;19965;-88
2023/10/19 09:15:38;;;;;;;;;;;18.20;99.90;;;;;;5125025;27;20276;-92
2023/10/19 09:18:27;;;;;;;;;;;18.20;99.90;;;;;;5091488;28;19915;-84
2023/10/19 09:20:53;;;;;;;;;;;18.20;99.90;;;;;;5085890;28;20282;-85
2023/10/19 09:23:27;;;;;;;;;;;18.10;99.90;;;;;;5091357;28;19908;-85
2023/10/19 09:25:53;;;;;;;;;;;18.10;99.90;;;;;;5092395;28;19999;-85
2023/10/19 09:28:19;;;;;;;;;;;18.00;99.90;;;;;;5091388;28;20012;-84
2023/10/19 09:30:45;;;;;;;;;;;18.10;99.90;;;;;;5089843;28;20618;-85
2023/10/19 09:33:13;;;;;;;;;;;18.20;99.90;;;;;;5091080;28;19908;-84
2023/10/19 09:35:43;;;;;;;;;;;18.20;99.90;;;;;;5089829;28;19919;-83
2023/10/19 09:38:09;;;;;;;;;;;18.20;99.90;;;;;;5089817;28;19908;-84
2023/10/19 09:40:34;;;;;;;;;;;18.30;99.90;;;;;;5090276;28;19909;-87
2023/10/19 09:43:04;;;;;;;;;;;18.30;99.90;;;;;;5090986;28;19966;-92
2023/10/19 09:45:30;;;;;;;;;;;18.40;99.90;;;;;;5091260;28;20379;-84
2023/10/19 09:47:56;;;;;;;;;;;18.40;99.90;;;;;;5123620;27;19947;-84
2023/10/19 09:50:21;;;;;;;;;;;18.40;99.90;;;;;;5091562;28;19930;-84
2023/10/19 09:52:48;;;;;;;;;;;18.50;99.90;;;;;;5090730;28;20362;-84
2023/10/19 09:55:23;;;;;;;;;;;18.50;99.90;;;;;;5090677;28;19916;-91
2023/10/19 09:57:51;;;;;;;;;;;18.60;99.90;;;;;;5089651;28;19944;-93
2023/10/19 10:00:23;;;;;;;;;;;18.70;99.90;;;;;;5090518;28;20411;-85
2023/10/19 10:02:49;;;;;;;;;;;18.80;99.90;;;;;;5090475;28;19916;-85
2023/10/19 10:05:33;;;;;;;;;;;18.90;99.90;;;;;;5090532;28;20364;-84
2023/10/19 10:08:17;;;;;;;;;;;19.00;99.90;;;;;;5089220;28;19912;-84
2023/10/19 10:10:49;;;;;;;;;;;19.10;99.90;;;;;;5089090;28;20011;-84
2023/10/19 10:13:24;;;;;;;;;;;19.00;99.90;;;;;;5123096;27;19908;-84
2023/10/19 10:15:52;;;;;;;;;;;19.10;99.90;;;;;;5090866;28;19917;-85
2023/10/19 10:18:17;;;;;;;;;;;19.20;99.90;;;;;;5088633;28;19916;-85
2023/10/19 10:20:43;;;;;;;;;;;19.30;99.90;;;;;;5090820;28;19957;-86
2023/10/19 10:23:16;;;;;;;;;;;19.20;99.90;;;;;;5088901;28;20363;-85
2023/10/19 10:25:48;;;;;;;;;;;19.20;99.90;;;;;;5090792;28;19915;-85
2023/10/19 10:28:14;;;;;;;;;;;19.10;99.90;;;;;;5087887;28;19919;-85
2023/10/19 10:30:58;;;;;;;;;;;19.10;99.90;;;;;;5088519;28;19915;-85
2023/10/19 10:33:37;;;;;;;;;;;19.10;99.90;;;;;;5090558;28;19916;-85
2023/10/19 10:36:05;;;;;;;;;;;19.10;99.90;;;;;;5089141;28;20011;-83
2023/10/19 10:38:33;;;;;;;;;;;19.10;99.90;;;;;;5086648;28;19920;-84
2023/10/19 10:40:58;;;;;;;;;;;19.00;99.90;;;;;;5084756;28;20413;-85
2023/10/19 10:43:24;;;;;;;;;;;18.90;99.90;;;;;;5090034;28;19908;-84
2023/10/19 10:45:50;;;;;;;;;;;18.90;99.90;;;;;;5095823;28;19908;-84
2023/10/19 10:48:16;;;;;;;;;;;18.90;99.90;;;;;;5096904;28;19950;-84
2023/10/19 10:50:42;;;;;;;;;;;18.80;99.90;;;;;;5095784;28;19908;-95
2023/10/19 10:53:11;;;;;;;;;;;18.80;99.90;;;;;;5106756;28;19938;-93
2023/10/19 10:55:37;;;;;;;;;;;18.80;99.90;;;;;;5103743;28;19914;-90
2023/10/19 10:58:03;;;;;;;;;;;18.80;99.90;;;;;;5100410;28;19935;-90
2023/10/19 11:00:30;;;;;;;;;;;18.70;99.90;;;;;;5091679;28;20391;-85
2023/10/19 11:03:00;;;;;;;;;;;18.70;99.90;;;;;;5090461;28;19966;-88
2023/10/19 11:05:25;;;;;;;;;;;18.70;99.90;;;;;;5090810;28;19912;-93
2023/10/19 11:08:03;;;;;;;;;;;18.70;99.90;;;;;;5076619;28;19989;-87
2023/10/19 11:10:29;;;;;;;;;;;18.70;99.90;;;;;;5094618;28;19914;-89
2023/10/19 11:13:05;;;;;;;;;;;18.60;99.90;;;;;;5097904;28;20391;-87
2023/10/19 11:15:32;;;;;;;;;;;18.60;99.90;;;;;;5088950;28;19924;-85
2023/10/19 11:17:58;;;;;;;;;;;18.30;99.90;;;;;;5089564;28;20292;-85
2023/10/19 11:20:24;;;;;;;;;;;18.10;99.90;;;;;;5089673;28;20375;-85
2023/10/19 11:22:51;;;;;;;;;;;17.90;99.90;;;;;;5087989;28;19912;-84
2023/10/19 11:25:17;;;;;;;;;;;17.80;99.90;;;;;;5090137;28;19977;-86
2023/10/19 11:27:43;;;;;;;;;;;17.60;99.90;;;;;;5090203;28;20268;-83
2023/10/19 11:30:11;;;;;;;;;;;17.60;99.90;;;;;;5089753;28;19920;-85
2023/10/19 11:32:40;;;;;;;;;;;17.40;99.90;;;;;;5089649;28;19916;-83
2023/10/19 11:35:07;;;;;;;;;;;17.40;99.90;;;;;;5089783;28;19974;-87
2023/10/19 11:37:52;;;;;;;;;;;17.40;99.90;;;;;;5088639;28;19968;-83
2023/10/19 11:40:19;;;;;;;;;;;17.40;99.90;;;;;;5090049;28;20319;-87
2023/10/19 11:42:44;;;;;;;;;;;17.40;99.90;;;;;;5090280;28;19954;-86
2023/10/19 11:45:11;;;;;;;;;;;17.50;99.90;;;;;;5089629;28;19912;-83
2023/10/19 11:47:37;;;;;;;;;;;17.60;99.90;;;;;;5088614;28;19916;-91
2023/10/19 11:50:03;;;;;;;;;;;17.60;99.90;;;;;;5089717;28;19985;-84
2023/10/19 11:52:30;;;;;;;;;;;17.70;99.90;;;;;;5077789;28;20453;-84
2023/10/19 11:54:55;;;;;;;;;;;17.70;99.90;;;;;;5097969;28;20403;-86
2023/10/19 11:57:21;;;;;;;;;;;17.70;99.90;;;;;;5089538;28;20147;-86
2023/10/19 11:59:52;;;;;;;;;;;17.80;99.90;;;;;;5093290;28;20291;-86
2023/10/19 12:02:18;;;;;;;;;;;17.80;99.90;;;;;;5076220;28;20390;-85
2023/10/19 12:04:45;;;;;;;;;;;17.90;99.90;;;;;;5092816;28;19919;-85
2023/10/19 12:07:10;;;;;;;;;;;17.80;99.90;;;;;;5095844;28;19908;-86
2023/10/19 12:09:36;;;;;;;;;;;17.90;99.90;;;;;;5096945;28;19912;-86
2023/10/19 12:12:05;;;;;;;;;;;18.00;99.90;;;;;;5100963;28;19966;-84
2023/10/19 12:14:34;;;;;;;;;;;18.00;99.90;;;;;;5097907;28;19920;-83
2023/10/19 12:17:01;;;;;;;;;;;18.10;99.90;;;;;;5107829;28;19918;-83
2023/10/19 12:19:28;;;;;;;;;;;18.20;99.90;;;;;;5106745;28;19899;-82
2023/10/19 12:21:54;;;;;;;;;;;18.20;99.90;;;;;;5102061;28;19916;-92
2023/10/19 12:24:20;;;;;;;;;;;18.30;99.90;;;;;;5107159;28;19940;-83
2023/10/19 12:26:46;;;;;;;;;;;18.40;99.90;;;;;;5109701;28;19892;-83
2023/10/19 12:29:14;;;;;;;;;;;18.50;99.90;;;;;;5096594;28;20394;-83
2023/10/19 12:31:40;;;;;;;;;;;18.40;99.90;;;;;;5089288;28;19926;-85
2023/10/19 12:34:06;;;;;;;;;;;18.50;99.90;;;;;;5090827;28;19924;-83
2023/10/19 12:36:32;;;;;;;;;;;18.60;99.90;;;;;;5087025;28;19935;-84
2023/10/19 12:38:57;;;;;;;;;;;18.70;99.90;;;;;;5074686;28;20372;-93
2023/10/19 12:41:24;;;;;;;;;;;18.70;99.90;;;;;;5101318;28;19912;-83
2023/10/19 12:43:57;;;;;;;;;;;18.80;99.90;;;;;;5094010;28;20337;-92
2023/10/19 12:46:24;;;;;;;;;;;18.80;99.90;;;;;;5094916;28;19999;-84
2023/10/19 12:48:55;;;;;;;;;;;18.60;99.90;;;;;;5094884;28;19920;-83
2023/10/19 12:51:24;;;;;;;;;;;18.70;99.90;;;;;;5106585;28;19948;-84
2023/10/19 12:53:53;;;;;;;;;;;18.60;99.90;;;;;;5092380;28;19965;-84
2023/10/19 12:56:33;;;;;;;;;;;18.60;99.90;;;;;;5098748;28;20010;-83
2023/10/19 12:58:59;;;;;;;;;;;18.60;99.90;;;;;;5114913;28;19907;-84
2023/10/19 13:01:27;;;;;;;;;;;18.50;99.90;;;;;;5122402;28;20801;-84
2023/10/19 13:03:53;;;;;;;;;;;18.50;99.90;;;;;;5117965;28;19892;-84
2023/10/19 13:06:19;;;;;;;;;;;18.40;99.90;;;;;;5104591;28;19919;-85
2023/10/19 13:08:46;;;;;;;;;;;18.40;99.90;;;;;;5097797;28;20008;-92
2023/10/19 13:11:14;;;;;;;;;;;18.30;99.90;;;;;;5102641;28;19916;-84
2023/10/19 13:13:39;;;;;;;;;;;18.30;99.90;;;;;;5099188;28;19920;-92
2023/10/19 13:16:11;;;;;;;;;;;18.30;99.90;;;;;;5097110;28;19908;-92
2023/10/19 13:18:40;;;;;;;;;;;18.30;99.90;;;;;;5093793;28;19912;-84
2023/10/19 13:21:05;;;;;;;;;;;18.30;99.90;;;;;;5105935;28;19932;-94
2023/10/19 13:23:33;;;;;;;;;;;18.20;99.90;;;;;;5100937;28;19912;-84
2023/10/19 13:26:09;;;;;;;;;;;18.20;99.90;;;;;;5089928;28;19920;-85
2023/10/19 13:28:38;;;;;;;;;;;18.20;99.90;;;;;;5092050;28;19918;-85
2023/10/19 13:31:04;;;;;;;;;;;18.20;99.90;;;;;;5097339;28;20243;-91
2023/10/19 13:33:29;;;;;;;;;;;18.20;99.90;;;;;;5089607;28;20350;-92
2023/10/19 13:35:55;;;;;;;;;;;18.10;99.90;;;;;;5095853;28;19942;-88
2023/10/19 13:38:20;;;;;;;;;;;18.20;99.90;;;;;;5090579;28;20379;-83
2023/10/19 13:40:46;;;;;;;;;;;18.30;99.90;;;;;;5089182;28;19912;-84
2023/10/19 13:43:16;;;;;;;;;;;18.30;99.90;;;;;;5096107;28;19908;-87
2023/10/19 13:45:44;;;;;;;;;;;18.40;99.90;;;;;;5096062;28;19915;-88
2023/10/19 13:48:11;;;;;;;;;;;18.50;99.90;;;;;;5092029;28;19916;-85
2023/10/19 13:50:40;;;;;;;;;;;18.50;99.90;;;;;;5088941;28;19912;-86
2023/10/19 13:53:05;;;;;;;;;;;18.50;99.90;;;;;;5090775;28;19908;-88
2023/10/19 13:55:31;;;;;;;;;;;18.50;99.90;;;;;;5089995;28;19924;-87
2023/10/19 13:57:57;;;;;;;;;;;18.50;99.90;;;;;;5091819;28;20882;-93
2023/10/19 14:00:24;;;;;;;;;;;18.50;99.90;;;;;;5087606;28;19912;-84
2023/10/19 14:02:50;;;;;;;;;;;18.50;99.90;;;;;;5089732;28;19912;-87
2023/10/19 14:05:16;;;;;;;;;;;18.30;99.90;;;;;;5091211;28;19908;-84
2023/10/19 14:07:43;;;;;;;;;;;18.30;99.90;;;;;;5089002;28;20011;-84
2023/10/19 14:10:12;;;;;;;;;;;18.30;99.90;;;;;;5087879;28;20353;-84
2023/10/19 14:12:41;;;;;;;;;;;18.20;99.90;;;;;;5089044;28;19923;-84
2023/10/19 14:15:08;;;;;;;;;;;18.20;99.90;;;;;;5090261;28;19916;-84
2023/10/19 14:17:34;;;;;;;;;;;18.30;99.90;;;;;;5088455;28;20410;-84
2023/10/19 14:19:59;;;;;;;;;;;18.30;99.90;;;;;;5087993;28;19916;-84
2023/10/19 14:22:25;;;;;;;;;;;18.10;99.90;;;;;;5115110;27;19920;-84
2023/10/19 14:24:50;;;;;;;;;;;18.20;99.90;;;;;;5088444;28;19920;-92
2023/10/19 14:27:16;;;;;;;;;;;18.20;99.90;;;;;;5099328;28;19908;-84